Tiruchirapally Civil Airport Airport
VOTR : now visible

Airfield :











YOU CAN JOIN US ON...

 
LOGIN :

Register | Disclaimer

   EN    FR    IT 

 









Legend :    VFR   Marginal VFR   IFR   Intensive IFR   Very Intensive IFR
Visi :
Ceiling :
>= 8 km
>= 3000ft
5 to 8 km
1000 to 3000 ft
1500m to 5 km
500 to 1000 ft
800 to 1500m
200 to 500 ft
< 800m
< 200 ft
Symbols :   Thunderstorms  Fog  Heavy snow  Heavy precipitations  Wind > 20 kt






- Airport Elevation : 288 ft
- IATA code : TRZ


VOTR - Tiruchirapally Civil

CURRENT METAR :
  • 211730Z 32005KT 4000 BR SCT016 BKN100 28/26 Q1005 NOSIG

EXPIRED METARs :
  • 211700Z 29006KT 4000 BR SCT016 BKN100 28/26 Q1005 NOSIG
  • 211630Z 27004KT 4000 BR SCT016 BKN100 28/26 Q1004 NOSIG
  • 211600Z 26003KT 4000 BR SCT016 BKN100 28/27 Q1004 NOSIG
  • 211530Z 25004KT 4000 BR SCT016 BKN100 28/26 Q1004 NOSIG
  • 211500Z 25003KT 4000 BR SCT016 BKN100 28/26 Q1004 NOSIG
  • 211430Z 22003KT 4000 BR SCT016 FEW025CB BKN080 28/26 Q1004 NOSIG
  • 211400Z VRB02KT 4000 BR SCT016 FEW025CB OVC080 28/27 Q1004 NOSIG
  • 211330Z 22003KT 4000 BR SCT016 FEW025CB OVC080 28/27 Q1004 NOSIG
  • 211300Z 21004KT 4000 -DZ SCT016 FEW025CB OVC080 28/27 Q1004 NOSIG

TAF TAF VOTR
Valid from the 21 at 18:00 until the 23 at 00:00 UTC


211700Z 2118/2224 29005KT 3000 -RA/BR SCT016 BKN080
PROB30
TEMPO 2200/2206 4000 -TSRA/RA SCT015 FEW025CB BKN080
BECMG 2206/2207 5000 -DZ/HZ
BECMG 2209/2210 6000
VOMF FIR / Asia



MET'MAP, your aeronautical weather chart ! - Copyright ORBIFLY December 2007 - Disclaimer

ORBIFLY MET'MAP TEAM :

Programming & Development : Alexandra Zaïnal
Original concept : Baudouin d'Aumeries
Technical & hardware support : Manuel Goepfert
Assistance : Marc-Olivier Méhu




SOURCES & CREDITS :

   NOAA       Earth
Advisory